createdAt,value
2018-01-01T00:00:40.459Z,93.40
2018-01-01T00:05:46.146Z,93.20
2018-01-01T00:08:13.619Z,93.70
2018-01-01T00:10:41.214Z,92.30
2018-01-01T00:13:08.717Z,92.50
2018-01-01T00:15:36.284Z,92.80
2018-01-01T00:18:03.754Z,92.50
2018-01-01T00:20:31.358Z,92.10
2018-01-01T00:22:59.246Z,92.70
2018-01-01T00:25:26.718Z,92.70
2018-01-01T00:27:54.328Z,92.60
2018-01-01T00:30:21.807Z,92.10
2018-01-01T00:32:49.309Z,92.70
2018-01-01T00:35:17.179Z,92.10
2018-01-01T00:37:44.670Z,92.10
2018-01-01T00:40:12.140Z,92.00
2018-01-01T00:42:39.652Z,91.40
2018-01-01T00:45:07.518Z,91.60
2018-01-01T00:47:35.011Z,91.50
2018-01-01T00:50:02.577Z,91.50
2018-01-01T00:52:30.086Z,91.00
2018-01-01T00:54:57.973Z,91.60
2018-01-01T00:57:25.470Z,91.60
2018-01-01T00:59:53.349Z,91.60
2018-01-01T01:02:20.853Z,91.60
2018-01-01T01:04:48.722Z,90.90
2018-01-01T01:07:16.226Z,90.90
2018-01-01T01:09:44.191Z,90.60
2018-01-01T01:12:11.705Z,90.60
2018-01-01T01:14:39.584Z,90.00
2018-01-01T01:17:07.168Z,90.00
2018-01-01T01:19:34.649Z,89.70
2018-01-01T01:22:02.229Z,89.90
2018-01-01T01:24:29.800Z,88.90
2018-01-01T01:26:57.310Z,89.00
2018-01-01T01:29:25.170Z,89.50
2018-01-01T01:31:52.673Z,89.50
2018-01-01T01:34:20.153Z,90.10
2018-01-01T01:36:47.741Z,90.50
2018-01-01T01:39:15.329Z,91.50
2018-01-01T01:41:42.894Z,91.30
2018-01-01T01:44:10.381Z,92.30
2018-01-01T01:46:37.862Z,92.00
2018-01-01T01:49:05.454Z,91.80
2018-01-01T01:51:33.053Z,91.20
2018-01-01T01:54:00.559Z,91.60
2018-01-01T01:56:28.444Z,90.70
2018-01-01T01:58:56.341Z,90.80
2018-01-01T02:01:24.224Z,90.50
2018-01-01T02:03:52.120Z,91.10
2018-01-01T02:06:19.997Z,91.00
2018-01-01T02:08:47.505Z,91.00
2018-01-01T02:11:14.989Z,90.20
2018-01-01T02:13:42.492Z,90.50
2018-01-01T02:16:09.973Z,90.50
2018-01-01T02:18:37.693Z,89.50
2018-01-01T02:21:05.173Z,89.30
2018-01-01T02:23:32.777Z,89.80
2018-01-01T02:26:00.249Z,89.30
2018-01-01T02:28:27.830Z,88.90
2018-01-01T02:30:55.312Z,88.80
2018-01-01T02:33:22.844Z,87.90
2018-01-01T02:35:50.761Z,88.10
2018-01-01T02:38:18.429Z,88.10
2018-01-01T02:40:46.006Z,87.80
2018-01-01T02:43:13.761Z,87.50
2018-01-01T02:45:41.400Z,87.40
2018-01-01T02:48:08.923Z,86.70
2018-01-01T02:50:36.419Z,86.60
2018-01-01T02:53:03.999Z,86.00
2018-01-01T02:55:31.481Z,85.30
2018-01-01T02:57:58.992Z,85.20
2018-01-01T03:00:26.869Z,83.90
2018-01-01T03:02:54.357Z,83.90
2018-01-01T03:05:21.869Z,84.00
2018-01-01T03:07:49.735Z,81.40
2018-01-01T03:10:17.308Z,81.40
2018-01-01T03:12:44.800Z,81.80
2018-01-01T03:15:12.302Z,81.90
2018-01-01T03:17:39.790Z,81.00
2018-01-01T03:20:07.678Z,81.00
2018-01-01T03:22:35.256Z,80.90
2018-01-01T03:25:03.381Z,81.30
2018-01-01T03:27:31.349Z,81.50
2018-01-01T03:29:58.918Z,81.50
2018-01-01T03:32:26.391Z,81.60
2018-01-01T03:34:54.026Z,81.20
2018-01-01T03:37:21.906Z,81.20
2018-01-01T03:39:49.415Z,81.20
2018-01-01T03:42:16.969Z,81.00
2018-01-01T03:44:44.452Z,81.00
2018-01-01T03:47:11.952Z,80.90
2018-01-01T03:49:39.422Z,80.20
2018-01-01T03:52:06.913Z,80.60
2018-01-01T03:54:34.412Z,81.00
2018-01-01T03:57:02.381Z,80.60
2018-01-01T03:59:29.863Z,80.60
2018-01-01T04:01:57.369Z,81.00
2018-01-01T04:04:25.326Z,81.40
2018-01-01T04:06:52.872Z,81.40
2018-01-01T04:09:20.338Z,81.10
2018-01-01T04:11:47.826Z,80.80
2018-01-01T04:14:15.315Z,81.80
2018-01-01T04:16:42.782Z,81.40
2018-01-01T04:19:10.742Z,81.20
2018-01-01T04:21:38.224Z,81.20
2018-01-01T04:24:05.718Z,81.20
2018-01-01T04:26:33.286Z,81.60
2018-01-01T04:29:00.774Z,81.80
2018-01-01T04:31:28.274Z,82.00
2018-01-01T04:33:56.403Z,82.50
2018-01-01T04:36:23.917Z,82.50
2018-01-01T04:38:51.409Z,82.00
2018-01-01T04:41:19.021Z,82.50
2018-01-01T04:43:46.486Z,82.60
2018-01-01T04:46:13.974Z,82.90
2018-01-01T04:48:41.446Z,82.80
2018-01-01T04:51:08.974Z,83.20
2018-01-01T04:53:36.947Z,83.00
2018-01-01T04:56:04.434Z,83.00
2018-01-01T04:58:31.916Z,82.90
2018-01-01T05:00:59.408Z,82.20
2018-01-01T05:03:26.911Z,82.30
2018-01-01T05:05:54.401Z,83.10
2018-01-01T05:08:22.272Z,82.90
2018-01-01T05:10:49.765Z,82.90
2018-01-01T05:13:17.272Z,83.00
2018-01-01T05:15:45.230Z,83.00
2018-01-01T05:18:12.732Z,83.00
2018-01-01T05:20:40.606Z,82.80
2018-01-01T05:23:08.098Z,82.80
2018-01-01T05:25:35.677Z,83.00
2018-01-01T05:28:03.158Z,82.50
2018-01-01T05:30:30.641Z,82.50
2018-01-01T05:32:58.149Z,82.50
2018-01-01T05:35:26.030Z,83.80
2018-01-01T05:37:53.518Z,83.80
2018-01-01T05:40:21.005Z,83.60
2018-01-01T05:42:48.897Z,83.60
2018-01-01T05:45:16.501Z,83.60
2018-01-01T05:47:44.406Z,84.20
2018-01-01T05:50:11.870Z,84.20
2018-01-01T05:52:39.445Z,83.80
2018-01-01T05:55:06.948Z,84.20
2018-01-01T05:57:34.936Z,84.40
2018-01-01T06:00:02.830Z,84.20
2018-01-01T06:02:30.808Z,83.50
2018-01-01T06:04:58.300Z,83.50
2018-01-01T06:07:25.882Z,83.20
2018-01-01T06:09:53.366Z,83.30
2018-01-01T06:12:20.939Z,83.40
2018-01-01T06:14:48.441Z,83.20
2018-01-01T06:17:15.925Z,83.30
2018-01-01T06:19:43.429Z,83.00
2018-01-01T06:22:11.309Z,83.20
2018-01-01T06:24:39.314Z,83.30
2018-01-01T06:27:07.289Z,83.30
2018-01-01T06:29:34.872Z,83.30
2018-01-01T06:32:02.340Z,83.50
2018-01-01T06:34:29.806Z,83.30
2018-01-01T06:36:57.294Z,83.90
2018-01-01T06:39:24.768Z,84.20
2018-01-01T06:41:52.273Z,84.20
2018-01-01T06:44:19.757Z,84.30
2018-01-01T06:46:47.243Z,84.40
2018-01-01T06:49:14.727Z,84.60
2018-01-01T06:51:42.218Z,84.20
2018-01-01T06:54:09.790Z,84.20
2018-01-01T06:56:37.283Z,84.40
2018-01-01T06:59:04.765Z,84.30
2018-01-01T07:01:32.251Z,84.20
2018-01-01T07:03:59.822Z,84.30
2018-01-01T07:06:27.425Z,84.30
2018-01-01T07:08:55.013Z,84.20
2018-01-01T07:11:22.486Z,83.80
2018-01-01T07:13:50.013Z,84.10
2018-01-01T07:16:17.550Z,83.80
2018-01-01T07:18:45.141Z,83.60
2018-01-01T07:21:12.729Z,83.20
2018-01-01T07:23:40.313Z,83.50
2018-01-01T07:26:07.805Z,83.20
2018-01-01T07:28:35.310Z,82.90
2018-01-01T07:31:02.795Z,83.10
2018-01-01T07:33:30.278Z,83.20
2018-01-01T07:35:57.766Z,83.20
2018-01-01T07:38:25.250Z,82.80
2018-01-01T07:40:52.791Z,82.30
2018-01-01T07:43:20.316Z,82.70
2018-01-01T07:45:48.268Z,82.50
2018-01-01T07:48:15.767Z,82.40
2018-01-01T07:50:43.334Z,83.00
2018-01-01T07:53:10.817Z,83.10
2018-01-01T07:55:38.418Z,82.90
2018-01-01T07:58:05.901Z,82.70
2018-01-01T08:00:33.542Z,82.30
2018-01-01T08:03:01.066Z,82.60
2018-01-01T08:05:28.680Z,82.30
2018-01-01T08:07:56.581Z,81.90
2018-01-01T08:10:24.479Z,82.20
2018-01-01T08:12:52.369Z,82.70
2018-01-01T08:15:20.281Z,82.50
2018-01-01T08:17:47.767Z,82.50
2018-01-01T08:20:15.250Z,82.40
2018-01-01T08:22:42.749Z,82.00
2018-01-01T08:25:10.270Z,82.30
2018-01-01T08:27:37.758Z,82.10
2018-01-01T08:30:05.231Z,81.80
2018-01-01T08:32:32.742Z,82.40
2018-01-01T08:35:00.725Z,82.20
2018-01-01T08:37:28.230Z,82.20
2018-01-01T08:39:56.105Z,81.90
2018-01-01T08:42:23.669Z,82.00
2018-01-01T08:44:51.156Z,81.30
2018-01-01T08:47:18.669Z,82.50
2018-01-01T08:49:46.535Z,82.30
2018-01-01T08:52:14.009Z,82.30
2018-01-01T08:54:41.498Z,82.60
2018-01-01T08:57:09.096Z,82.80
2018-01-01T08:59:36.590Z,83.60
2018-01-01T09:02:04.566Z,85.70
2018-01-01T09:04:32.054Z,85.70
2018-01-01T09:06:59.533Z,87.10
2018-01-01T09:09:27.110Z,87.50
2018-01-01T09:11:54.630Z,87.70
2018-01-01T09:14:22.176Z,88.10
2018-01-01T09:16:49.660Z,88.20
2018-01-01T09:19:17.258Z,88.30
2018-01-01T09:21:44.858Z,88.90
2018-01-01T09:24:12.362Z,89.20
2018-01-01T09:26:39.890Z,88.20
2018-01-01T09:29:07.393Z,89.40
2018-01-01T09:31:35.002Z,90.60
2018-01-01T09:34:02.893Z,91.50
2018-01-01T09:36:30.779Z,92.40
2018-01-01T09:38:58.648Z,92.20
2018-01-01T09:41:26.130Z,92.20
2018-01-01T09:43:53.710Z,92.40
2018-01-01T09:46:21.198Z,93.00
2018-01-01T09:48:48.792Z,92.20
2018-01-01T09:51:16.279Z,92.80
2018-01-01T09:53:43.845Z,93.10
2018-01-01T09:56:11.346Z,93.30
2018-01-01T09:58:38.857Z,93.40
2018-01-01T10:01:06.324Z,93.30
2018-01-01T10:03:34.222Z,93.90
2018-01-01T10:06:02.179Z,93.50
2018-01-01T10:08:29.678Z,93.50
2018-01-01T10:10:57.156Z,91.60
2018-01-01T10:13:24.730Z,91.30
2018-01-01T10:15:52.220Z,91.70
2018-01-01T10:18:19.817Z,90.40
2018-01-01T10:20:47.413Z,90.70
2018-01-01T10:23:15.299Z,91.00
2018-01-01T10:25:42.787Z,91.00
2018-01-01T10:28:11.098Z,89.60
2018-01-01T10:30:38.982Z,89.50
2018-01-01T10:33:06.889Z,88.70
2018-01-01T10:35:34.388Z,88.70
2018-01-01T10:38:01.922Z,88.90
2018-01-01T10:40:29.410Z,88.50
2018-01-01T10:42:56.922Z,88.00
2018-01-01T10:45:24.426Z,87.70
2018-01-01T10:47:51.914Z,87.20
2018-01-01T10:50:19.438Z,89.40
2018-01-01T10:52:46.926Z,82.00
2018-01-01T10:55:14.398Z,84.60
2018-01-01T10:57:41.908Z,81.40
2018-01-01T11:00:09.806Z,81.90
2018-01-01T11:02:37.313Z,82.00
2018-01-01T11:05:04.853Z,81.50
2018-01-01T11:07:32.433Z,80.70
2018-01-01T11:10:00.054Z,79.60
2018-01-01T11:12:27.576Z,79.10
2018-01-01T11:14:55.082Z,79.30
2018-01-01T11:17:22.618Z,79.80
2018-01-01T11:19:50.097Z,80.10
2018-01-01T11:22:17.738Z,78.30
2018-01-01T11:24:45.637Z,79.00
2018-01-01T11:27:13.606Z,77.60
2018-01-01T11:29:41.090Z,77.60
2018-01-01T11:32:08.739Z,78.70
2018-01-01T11:34:36.245Z,79.00
2018-01-01T11:37:03.930Z,79.30
2018-01-01T11:39:31.445Z,79.80
2018-01-01T11:41:58.914Z,79.10
2018-01-01T11:44:26.523Z,78.20
2018-01-01T11:46:54.402Z,78.70
2018-01-01T11:49:21.978Z,78.70
2018-01-01T11:51:49.457Z,78.40
2018-01-01T11:54:16.958Z,78.20
2018-01-01T11:56:44.426Z,78.00
2018-01-01T11:59:11.904Z,77.50
2018-01-01T12:01:39.394Z,78.20
2018-01-01T12:04:06.877Z,76.90
2018-01-01T12:06:34.381Z,77.30
2018-01-01T12:09:01.883Z,77.40
2018-01-01T12:11:29.371Z,78.20
2018-01-01T12:13:57.424Z,77.80
2018-01-01T12:16:24.918Z,77.40
2018-01-01T12:18:52.392Z,78.00
2018-01-01T12:21:19.913Z,78.00
2018-01-01T12:23:47.393Z,78.40
2018-01-01T12:26:14.999Z,77.70
2018-01-01T12:28:42.467Z,78.00
2018-01-01T12:31:09.973Z,77.00
2018-01-01T12:33:37.477Z,77.60
2018-01-01T12:36:05.353Z,77.60
2018-01-01T12:38:32.953Z,77.60
2018-01-01T12:41:00.923Z,77.30
2018-01-01T12:43:28.431Z,77.30
2018-01-01T12:45:56.302Z,77.40
2018-01-01T12:48:23.893Z,77.30
2018-01-01T12:50:51.381Z,77.30
2018-01-01T12:53:18.977Z,78.00
2018-01-01T12:55:46.446Z,78.30
2018-01-01T12:58:13.940Z,79.40
2018-01-01T13:00:41.522Z,78.40
2018-01-01T13:03:09.005Z,78.10
2018-01-01T13:05:36.498Z,78.30
2018-01-01T13:08:04.164Z,78.20
2018-01-01T13:10:31.781Z,78.60
2018-01-01T13:12:59.297Z,78.80
2018-01-01T13:15:26.805Z,78.90
2018-01-01T13:17:54.685Z,78.70
2018-01-01T13:20:22.221Z,78.70
2018-01-01T13:22:49.739Z,78.80
2018-01-01T13:25:17.248Z,79.00
2018-01-01T13:27:45.119Z,79.20
2018-01-01T13:30:12.620Z,79.20
2018-01-01T13:32:40.109Z,79.70
2018-01-01T13:35:08.097Z,80.10
2018-01-01T13:37:35.591Z,80.10
2018-01-01T13:40:03.565Z,80.10
2018-01-01T13:42:31.182Z,80.10
2018-01-01T13:44:59.069Z,79.70
2018-01-01T13:47:27.168Z,80.10
2018-01-01T13:49:55.042Z,79.80
2018-01-01T13:52:22.618Z,79.80
2018-01-01T13:54:50.110Z,79.30
2018-01-01T13:57:17.684Z,79.50
2018-01-01T13:59:45.274Z,79.50
2018-01-01T14:02:12.765Z,79.40
2018-01-01T14:04:40.284Z,79.40
2018-01-01T14:07:07.755Z,79.20
2018-01-01T14:09:35.656Z,79.50
2018-01-01T14:12:03.630Z,78.70
2018-01-01T14:14:31.161Z,78.60
2018-01-01T14:16:58.671Z,78.30
2018-01-01T14:19:26.159Z,78.60
2018-01-01T14:21:53.641Z,78.80
2018-01-01T14:24:21.135Z,78.70
2018-01-01T14:26:48.616Z,78.90
2018-01-01T14:29:16.289Z,78.60
2018-01-01T14:31:43.806Z,79.30
2018-01-01T14:34:11.796Z,79.60
2018-01-01T14:36:39.801Z,79.70
2018-01-01T14:39:07.772Z,80.60
2018-01-01T14:41:35.266Z,80.60
2018-01-01T14:44:02.754Z,81.30
2018-01-01T14:46:30.268Z,81.60
2018-01-01T14:48:57.773Z,82.00
2018-01-01T14:51:25.277Z,83.00
2018-01-01T14:53:52.752Z,83.10
2018-01-01T14:56:20.239Z,83.80
2018-01-01T14:58:48.005Z,84.20
2018-01-01T15:01:15.478Z,83.80
2018-01-01T15:03:43.079Z,84.70
2018-01-01T15:06:10.551Z,84.50
2018-01-01T15:08:38.208Z,84.50
2018-01-01T15:11:06.101Z,85.80
2018-01-01T15:13:34.045Z,86.30
2018-01-01T15:16:01.490Z,86.30
2018-01-01T15:18:29.123Z,86.80
2018-01-01T15:20:56.608Z,87.00
2018-01-01T15:23:24.277Z,87.70
2018-01-01T15:25:51.774Z,87.90
2018-01-01T15:28:19.499Z,87.70
2018-01-01T15:30:47.389Z,84.30
2018-01-01T15:33:15.254Z,84.60
2018-01-01T15:35:42.834Z,84.60
2018-01-01T15:38:10.465Z,85.80
2018-01-01T15:40:37.977Z,86.60
2018-01-01T15:43:05.530Z,87.00
2018-01-01T15:45:33.415Z,88.60
2018-01-01T15:48:01.294Z,88.90
2018-01-01T15:50:29.193Z,89.50
2018-01-01T15:52:57.082Z,90.30
2018-01-01T15:55:24.970Z,89.40
2018-01-01T15:57:52.856Z,90.20
2018-01-01T16:00:20.370Z,90.20
2018-01-01T16:02:47.867Z,90.50
2018-01-01T16:05:15.338Z,90.60
2018-01-01T16:07:42.830Z,89.70
2018-01-01T16:10:10.321Z,91.50
2018-01-01T16:12:37.811Z,91.10
2018-01-01T16:15:05.341Z,90.80
2018-01-01T16:17:33.249Z,92.30
2018-01-01T16:20:01.127Z,92.20
2018-01-01T16:22:28.633Z,92.20
2018-01-01T16:24:56.167Z,91.70
2018-01-01T16:27:23.657Z,90.80
2018-01-01T16:29:51.239Z,90.70
2018-01-01T16:32:18.711Z,91.10
2018-01-01T16:34:46.206Z,90.90
2018-01-01T16:37:13.683Z,91.20
2018-01-01T16:39:41.184Z,91.80
2018-01-01T16:42:08.655Z,91.60
2018-01-01T16:44:36.144Z,91.90
2018-01-01T16:47:03.737Z,91.60
2018-01-01T16:49:31.214Z,92.40
2018-01-01T16:51:58.752Z,91.80
2018-01-01T16:54:26.241Z,92.60
2018-01-01T16:56:53.787Z,92.50
2018-01-01T16:59:21.747Z,91.60
2018-01-01T17:01:49.330Z,91.60
2018-01-01T17:04:16.814Z,92.20
2018-01-01T17:06:44.317Z,91.70
2018-01-01T17:09:11.901Z,91.90
2018-01-01T17:11:39.505Z,92.40
2018-01-01T17:14:06.990Z,91.90
2018-01-01T17:16:34.543Z,91.50
2018-01-01T17:19:02.046Z,91.60
2018-01-01T17:21:29.927Z,92.50
2018-01-01T17:23:57.586Z,92.50
2018-01-01T17:26:25.069Z,91.30
2018-01-01T17:28:52.573Z,91.70
2018-01-01T17:31:20.068Z,92.30
2018-01-01T17:33:47.598Z,92.60
2018-01-01T17:36:15.081Z,92.60
2018-01-01T17:38:42.676Z,93.20
2018-01-01T17:41:10.168Z,92.90
2018-01-01T17:43:37.654Z,92.90
2018-01-01T17:46:05.136Z,93.30
2018-01-01T17:48:32.607Z,93.10
2018-01-01T17:51:00.099Z,92.80
2018-01-01T17:53:27.585Z,93.10
2018-01-01T17:55:55.148Z,93.30
2018-01-01T17:58:22.651Z,93.10
2018-01-01T18:00:50.139Z,93.00
2018-01-01T18:03:17.663Z,93.40
2018-01-01T18:05:45.569Z,93.30
2018-01-01T18:08:13.115Z,93.30
2018-01-01T18:10:40.621Z,93.00
2018-01-01T18:13:08.610Z,92.90
2018-01-01T18:15:36.495Z,93.00
2018-01-01T18:18:04.398Z,92.80
2018-01-01T18:20:32.368Z,93.00
2018-01-01T18:23:00.281Z,93.40
2018-01-01T18:25:28.161Z,93.70
2018-01-01T18:27:55.741Z,93.70
2018-01-01T18:30:23.325Z,93.50
2018-01-01T18:32:50.914Z,93.90
2018-01-01T18:35:18.482Z,93.60
2018-01-01T18:37:45.984Z,93.80
2018-01-01T18:40:13.561Z,93.10
2018-01-01T18:42:41.047Z,93.60
2018-01-01T18:45:08.529Z,93.90
2018-01-01T18:47:36.023Z,93.90
2018-01-01T18:50:03.925Z,93.00
2018-01-01T18:52:31.805Z,93.60
2018-01-01T18:54:59.771Z,93.70
2018-01-01T18:57:27.308Z,93.70
2018-01-01T18:59:54.803Z,94.00
2018-01-01T19:02:22.271Z,93.50
2018-01-01T19:04:49.807Z,92.80
2018-01-01T19:07:17.334Z,93.80
2018-01-01T19:09:45.254Z,93.80
2018-01-01T19:12:12.752Z,93.80
2018-01-01T19:14:40.246Z,94.20
2018-01-01T19:17:07.874Z,94.50
2018-01-01T19:19:35.441Z,94.60
2018-01-01T19:22:03.334Z,94.30
2018-01-01T19:24:30.806Z,94.20
2018-01-01T19:26:58.517Z,94.20
2018-01-01T19:29:26.041Z,94.40
2018-01-01T19:31:53.560Z,94.90
2018-01-01T19:34:21.117Z,95.10
2018-01-01T19:36:48.645Z,95.30
2018-01-01T19:39:16.520Z,95.30
2018-01-01T19:41:44.038Z,95.30
2018-01-01T19:44:11.913Z,94.90
2018-01-01T19:46:39.919Z,94.00
2018-01-01T19:49:07.414Z,94.00
2018-01-01T19:51:34.987Z,94.10
2018-01-01T19:54:02.539Z,94.60
2018-01-01T19:56:30.014Z,94.20
2018-01-01T19:58:57.528Z,94.20
2018-01-01T20:01:25.529Z,94.10
2018-01-01T20:03:53.176Z,94.10
2018-01-01T20:06:20.719Z,94.10
2018-01-01T20:08:48.364Z,93.50
2018-01-01T20:11:15.939Z,94.40
2018-01-01T20:13:44.000Z,94.20
2018-01-01T20:16:11.657Z,94.20
2018-01-01T20:18:39.135Z,94.50
2018-01-01T20:21:07.259Z,94.20
2018-01-01T20:23:34.741Z,94.20
2018-01-01T20:26:02.270Z,94.10
2018-01-01T20:28:29.996Z,94.10
2018-01-01T20:30:57.505Z,93.80
2018-01-01T20:33:25.018Z,94.00
2018-01-01T20:35:52.508Z,94.10
2018-01-01T20:38:20.125Z,93.80
2018-01-01T20:40:47.660Z,94.60
2018-01-01T20:43:15.165Z,94.10
2018-01-01T20:45:43.076Z,94.80
2018-01-01T20:48:10.590Z,94.80
2018-01-01T20:50:38.155Z,94.40
2018-01-01T20:53:06.054Z,94.30
2018-01-01T20:55:33.525Z,94.30
2018-01-01T20:58:01.430Z,94.90
2018-01-01T21:00:29.306Z,95.40
2018-01-01T21:02:57.169Z,95.40
2018-01-01T21:05:24.751Z,95.40
2018-01-01T21:07:52.261Z,95.60
2018-01-01T21:10:20.150Z,95.60
2018-01-01T21:12:47.710Z,95.60
2018-01-01T21:15:15.295Z,95.50
2018-01-01T21:17:42.778Z,95.30
2018-01-01T21:20:10.302Z,95.30
2018-01-01T21:22:38.283Z,95.30
2018-01-01T21:25:05.788Z,95.30
2018-01-01T21:27:33.365Z,95.30
2018-01-01T21:30:01.253Z,94.50
2018-01-01T21:32:29.139Z,94.80
2018-01-01T21:34:57.017Z,94.80
2018-01-01T21:37:24.511Z,94.80
2018-01-01T21:39:51.978Z,94.80
2018-01-01T21:42:19.476Z,95.40
2018-01-01T21:44:47.379Z,96.40
2018-01-01T21:47:15.356Z,97.00
2018-01-01T21:49:42.855Z,97.00
2018-01-01T21:52:10.830Z,96.90
2018-01-01T21:54:38.320Z,96.90
2018-01-01T21:57:05.876Z,97.10
2018-01-01T21:59:33.374Z,97.20
2018-01-01T22:02:00.968Z,97.40
2018-01-01T22:04:28.481Z,97.00
2018-01-01T22:06:55.955Z,96.70
2018-01-01T22:09:23.920Z,96.60
2018-01-01T22:11:51.390Z,96.60
2018-01-01T22:14:18.883Z,96.60
2018-01-01T22:16:46.351Z,97.10
2018-01-01T22:19:13.866Z,97.00
2018-01-01T22:21:41.875Z,97.00
2018-01-01T22:24:09.752Z,96.40
2018-01-01T22:26:37.323Z,96.40
2018-01-01T22:29:04.801Z,96.60
2018-01-01T22:31:32.305Z,96.10
2018-01-01T22:34:00.181Z,96.00
2018-01-01T22:36:27.687Z,96.00
2018-01-01T22:38:55.554Z,96.60
2018-01-01T22:41:23.144Z,96.60
2018-01-01T22:43:50.729Z,96.40
2018-01-01T22:46:18.205Z,96.30
2018-01-01T22:48:45.699Z,96.30
2018-01-01T22:51:13.176Z,96.20
2018-01-01T22:53:40.765Z,96.10
2018-01-01T22:56:08.249Z,96.00
2018-01-01T22:58:35.823Z,96.30
2018-01-01T23:01:03.311Z,95.80
2018-01-01T23:03:30.813Z,96.00
2018-01-01T23:05:58.791Z,96.70
2018-01-01T23:08:26.398Z,96.70
2018-01-01T23:10:54.282Z,97.10
2018-01-01T23:13:22.159Z,96.40
2018-01-01T23:15:49.650Z,96.50
2018-01-01T23:18:17.237Z,96.50
2018-01-01T23:20:44.726Z,96.50
2018-01-01T23:23:12.619Z,95.70
2018-01-01T23:25:40.175Z,95.80
2018-01-01T23:28:07.659Z,95.50
2018-01-01T23:30:35.243Z,95.80
2018-01-01T23:33:02.725Z,95.70
2018-01-01T23:35:30.325Z,95.10
2018-01-01T23:37:57.817Z,95.70
2018-01-01T23:40:25.301Z,95.30
2018-01-01T23:42:53.201Z,95.40
2018-01-01T23:45:21.158Z,94.80
2018-01-01T23:47:48.664Z,94.80
2018-01-01T23:50:16.150Z,94.20
2018-01-01T23:52:43.641Z,94.80
2018-01-01T23:55:11.609Z,95.50
2018-01-01T23:57:39.109Z,95.50
